TimeEDT,TemperatureF,Dew PointF,Humidity,Sea Level PressureIn,VisibilityMPH,Wind Direction,Wind SpeedMPH,Gust SpeedMPH,PrecipitationIn,Events,Conditions,WindDirDegrees,DateUTC
12:53 AM,66.9,57.9,73,30.06,10.0,Calm,Calm,-,N/A,,Partly Cloudy,0,2012-04-16 04:53:00
1:53 AM,70.0,57.9,65,30.05,10.0,South,8.1,-,N/A,,Partly Cloudy,170,2012-04-16 05:53:00
2:53 AM,68.0,57.9,70,30.06,10.0,South,4.6,-,N/A,,Partly Cloudy,180,2012-04-16 06:53:00
3:53 AM,66.0,57.9,75,30.06,10.0,South,3.5,-,N/A,,Clear,180,2012-04-16 07:53:00
4:34 AM,64.4,57.2,77,30.10,10.0,Calm,Calm,-,N/A,,Mostly Cloudy,0,2012-04-16 08:34:00
4:53 AM,66.0,59.0,78,30.09,10.0,South,5.8,-,N/A,,Mostly Cloudy,170,2012-04-16 08:53:00
5:41 AM,66.2,60.8,83,30.10,10.0,SSE,8.1,-,N/A,,Mostly Cloudy,160,2012-04-16 09:41:00
5:53 AM,68.0,61.0,78,30.09,10.0,South,8.1,-,N/A,,Mostly Cloudy,170,2012-04-16 09:53:00
6:53 AM,66.9,62.1,84,30.10,10.0,SE,5.8,-,N/A,,Mostly Cloudy,140,2012-04-16 10:53:00
7:53 AM,68.0,62.1,81,30.12,10.0,SSE,6.9,-,N/A,,Mostly Cloudy,160,2012-04-16 11:53:00
8:53 AM,70.0,63.0,78,30.13,10.0,South,5.8,-,N/A,,Scattered Clouds,190,2012-04-16 12:53:00
9:53 AM,71.1,62.1,73,30.14,10.0,South,11.5,-,N/A,,Mostly Cloudy,170,2012-04-16 13:53:00
10:53 AM,70.0,62.1,76,30.17,10.0,South,10.4,17.3,N/A,,Overcast,170,2012-04-16 14:53:00
11:53 AM,73.0,62.1,68,30.16,10.0,South,17.3,-,N/A,,Mostly Cloudy,180,2012-04-16 15:53:00
12:53 PM,75.0,62.1,64,30.15,10.0,South,13.8,23.0,N/A,,Mostly Cloudy,180,2012-04-16 16:53:00
1:01 PM,69.8,62.6,78,30.19,1.2,West,18.4,26.5,0.00,Rain,Heavy Rain,260,2012-04-16 17:01:00
1:06 PM,68.0,62.6,83,30.19,6.0,SW,10.4,26.5,0.05,Rain,Light Rain,230,2012-04-16 17:06:00
1:53 PM,73.0,64.9,76,30.14,10.0,South,10.4,-,0.06,,Mostly Cloudy,180,2012-04-16 17:53:00
2:53 PM,75.9,64.0,67,30.12,10.0,South,11.5,18.4,N/A,,Mostly Cloudy,170,2012-04-16 18:53:00
3:53 PM,77.0,63.0,62,30.11,10.0,SSE,9.2,20.7,N/A,,Mostly Cloudy,160,2012-04-16 19:53:00
4:53 PM,73.9,63.0,68,30.09,10.0,South,9.2,18.4,N/A,,Mostly Cloudy,170,2012-04-16 20:53:00
5:53 PM,72.0,64.0,76,30.12,10.0,SW,9.2,-,N/A,,Mostly Cloudy,220,2012-04-16 21:53:00
6:53 PM,69.1,63.0,81,30.13,10.0,South,5.8,-,0.00,,Mostly Cloudy,190,2012-04-16 22:53:00
7:53 PM,68.0,63.0,84,30.16,10.0,South,4.6,-,N/A,,Mostly Cloudy,170,2012-04-16 23:53:00
8:53 PM,66.9,62.1,84,30.17,10.0,South,4.6,-,N/A,,Mostly Cloudy,170,2012-04-17 00:53:00
9:53 PM,66.9,61.0,81,30.19,10.0,South,4.6,-,N/A,,Mostly Cloudy,170,2012-04-17 01:53:00
10:53 PM,66.0,61.0,84,30.19,10.0,Calm,Calm,-,N/A,,Mostly Cloudy,0,2012-04-17 02:53:00
11:53 PM,64.9,61.0,87,30.19,10.0,SSW,3.5,-,N/A,,Mostly Cloudy,210,2012-04-17 03:53:00